Indian River, New York
Current Conditions -  °F | °C
As of 2:58 AM on Thursday 18 Dec 2014 (Local Time) from KGTB Reporting Station
Light Snow Light Snow  
Wind Chill: 23°   Ceiling: 500
Heat Index: 32°   Visibility: 4mi
Dew Point: 30°   Wind: 12mph
Humidity: 94%   Direction: 270°W
Pressure: 29.86"   Gusts: 23mph
Location:  43.9554°N, 75.2819°W
Report Text: KGTB 180758Z AUTO 27010G20KT 4SM -SN BR OVC005 00/M01 A2986 RMK AO2 SLP119 P0000 T10021011
Loading
Personal Weather Stations






























Interactive Weather Map New forecast layout! Learn more

10-Day Weather Forecast

Advertisements
Track Severe Weather on mobile